Pierceville, Indiana
Current Conditions -  °F | °C
As of 5:15 PM on Thursday 23 Oct 2014 (Local Time) from KI67 Reporting Station
Clear Clear  
Wind Chill: 59°   Ceiling: Unl
Heat Index: 59°   Visibility: 10mi
Dew Point: 37°   Wind: 0mph
Humidity: 45%   Direction: NA
Pressure: 30.13"   Gusts: NA
Location:  39.13°N, 85.18°W
Report Text: KI67 232115Z AUTO 00000KT 10SM CLR 15/03 A3013 RMK AO1
Loading
Personal Weather Stations






























Interactive Weather Map
Tropical Storm Tracking
New forecast layout! Learn more

10-Day Weather Forecast

Advertisements
Track Severe Weather on mobile